Terminal Aerodrome Forecast
Issued by NWS Twin Cities, MN

Home | Current Version | Previous Version | Text Only | Print | Product List | Glossary Off
Versions: 1 2 3 4 5 6 7 8 9 10 11 12 13 14 15 16 17

675
FTUS43 KMPX 251124
TAFSTC
TAF
KSTC 251124Z 2512/2612 32011KT P6SM SKC
     FM251700 27011KT P6SM SCT035 BKN070
     FM260000 23005KT P6SM SCT035 OVC050
     FM260400 21005KT P6SM VCSH SCT025 OVC050=

USA.gov is the U.S. government's official web portal to all federal, state and local government web resources and services.